AirNav   Air Wisconsin Up To $57,000 Bonus
 
 1125 users online  

17CL Las Trancas Airport
Davenport, California, USA

GOING TO DAVENPORT?


FAA INFORMATION EFFECTIVE 03 DECEMBER 2020

Location

FAA Identifier: 17CL
Lat/Long: 37-05-16.8120N 122-16-24.8950W
37-05.280200N 122-16.414917W
37.0880033,-122.2735819
(estimated)
Elevation: 125 ft. / 38 m (estimated)
Variation: 16E (1985)
From city: 6 miles NW of DAVENPORT, CA
Time zone: UTC -8 (UTC -7 during Daylight Saving Time)
Zip code: 95017

Airport Operations

Airport use: Private use. Permission required prior to landing
Activation date: 01/1967
Control tower: no
ARTCC: OAKLAND CENTER
FSS: OAKLAND FLIGHT SERVICE STATION
Attendance: UNATNDD
Wind indicator: yes
Segmented circle: no

Nearby radio navigation aids

VOR radial/distance  VOR name  Freq  Var
OSIr162/18.3WOODSIDE VOR/DME113.9017E
SJCr206/23.3SAN JOSE VOR/DME114.1016E
SFOr154/32.2SAN FRANCISCO VOR/DME115.8017E
OAKr167/38.3OAKLAND VOR/DME116.8017E

Airport Services

Airframe service: NONE
Powerplant service: NONE

Runway Information

Runway 14/32

Dimensions: 1300 x 30 ft. / 396 x 9 m
Surface: gravel
RUNWAY 14  RUNWAY 32
Traffic pattern: rightleft

Airport Ownership and Management from official FAA records

Ownership: Privately-owned
Owner: BIG CREEK LUMBER CO
3564 HWY 1
DAVENPORT, CA 95017
Phone (831) 457-5015
Manager: KENNETH MC CRARY
3564 HWY 1
DAVENPORT, CA 95017
Phone (831) 457-5028

Airport Operational Statistics

Aircraft based on the field: 1
Single engine airplanes: 1
    

Additional Remarks

TURBULENCE SW END DURING NW WIND IN EXCESS OF 15 KTS.
P-LINE 200' E OF RWY.
PHONE OR CONTACT OWNER BEFORE LANDING.
FOR CD CTC NORCAL APCH AT 916-361-3748.

Instrument Procedures

There are no published instrument procedures at 17CL.

Some nearby airports with instrument procedures:

KNUQ - Moffett Federal Airfield (22 nm NE)
KSJC - Norman Y Mineta San Jose International Airport (23 nm NE)
KPAO - Palo Alto Airport (24 nm N)
KWVI - Watsonville Municipal Airport (25 nm E)
KSQL - San Carlos Airport (25 nm N)
 
Loc | Ops | Rwys | IFR | FBO | Links
Com | Nav | Svcs | Stats | Notes
Area around 17CL (Las Trancas Airport)
 
Road maps at: MapQuest Bing Google
 
Aerial photo
WARNING: Photo may not be current or correct
Aerial photo of 17CL (Las Trancas Airport)
Photo by Kenneth and Gabrielle Adelman
Photo taken 04-Oct-2013
looking northeast.

Do you have a better or more recent aerial photo of Las Trancas Airport that you would like to share? If so, please send us your photo.

 
Sectional chart

 
Airport distance calculator
Flying to Las Trancas Airport? Find the distance to fly.

From to 17CL

Sunrise and sunset
Times for 05-Dec-2020
 Local
(UTC-8)
 Zulu
(UTC)
Morning civil twilight06:4114:41
Sunrise07:1015:10
Sunset16:5100:51
Evening civil twilight17:2001:20

Current date and time
Zulu (UTC)  05-Dec-2020 19:37:26
Local (UTC-8)  05-Dec-2020 11:37:26
 
METAR
KSJC 
24nm NE 
051853Z 00000KT 9SM FEW065 FEW080 SCT150 14/01 A3025 RMK AO2 SLP243 T01440011
KPAO 
24nm N 
051847Z VRB03KT 10SM SKC 11/03 A3026
KWVI 
25nm E 
051853Z AUTO 00000KT 10SM CLR 17/02 A3027 RMK AO2 SLP249 T01670017
KSQL 
26nm N 
051847Z 09006KT 10SM SKC 12/05 A3026
KRHV 
26nm NE 
051850Z 24006KT 10SM SCT090 16/02 A3026
KHAF 
28nm NW 
051915Z AUTO 00000KT 2 1/2SM BR BKN004 10/09 A3027 RMK AO2
KSFO 
32nm N 
051856Z 00000KT 10SM SCT200 14/08 A3026 RMK AO2 SLP247 T01390078
KE16 
32nm E 
051915Z AUTO 14004KT 10SM CLR 13/00 A3027 RMK AO2
KOAR 
35nm SE 
134.025 831-384-2967
051915Z AUTO 10004KT 10SM CLR 16/M01 A3023 RMK AO2
KHWD 
36nm N 
051854Z 16003KT 9SM CLR 14/03 A3024 RMK AO2 PRESFR SLP249 T01440028
TAF
KSJC 
24nm NE 
051725Z 0518/0618 00000KT P6SM FEW070 FM052200 31006KT P6SM SCT200 FM060200 VRB04KT P6SM FEW012 FEW150 FM060800 VRB04KT P6SM SCT015 BKN030
NOTAMs
Click for the latest NOTAMs
NOTAMs are issued by the DoD/FAA and will open in a separate window not controlled by AirNav.

 

 
 

Would you like to see your business listed on this page?

 If your business provides an interesting product or service to pilots, flight crews, aircraft, or users of the Las Trancas Airport, you should consider listing it here.  To start the listing process, click on the button below
 
Add a business
 

Other Pages about Las Trancas Airport

Update a link
 
Copyright © AirNav, LLC. All rights reserved. Privacy Policy  Contact